Terminal Aerodrome Forecast
Issued by NWS

Home | Current Version | Previous Version | Text Only | Print | Product List | Glossary On
Versions: 1 2 3 4 5 6 7 8 9 10 11 12 13 14 15 16 17 18 19 20 21 22 23 24 25 26 27
000
FTUS41 KBUF 282300
TAFJHW
TAF
KJHW 282320Z 0100/0124 VRB03KT P6SM SKC
     FM010500 17004KT P6SM BKN120
     FM010900 VRB03KT P6SM VCSH OVC040
     FM011400 17005KT 1SM -SN OVC020
     FM011800 21007KT 1SM -SN OVC012
      AMD LTD TO CLD VIS AND WIND=

USA.gov is the U.S. government's official web portal to all federal, state and local government web resources and services.